Time;durP1;ratioP1;P1;durP2;ratioP2;P2;SDS_P1;SDS_P2;PMS_P1;PMS_P2;Temp;Humidity;BMP_temperature;BMP_pressure;BME280_temperature;BME280_humidity;BME280_pressure;Samples;Min_cycle;Max_cycle;Signal;HPM_P1;HPM_P2
2023/06/09 00:02:22;;;;;;;13.82;7.50;;;21.70;86.40;;;;;;5053728;28;20037;-70
2023/06/09 00:04:48;;;;;;;8.90;6.15;;;21.60;86.50;;;;;;5052577;28;20059;-70
2023/06/09 00:07:17;;;;;;;13.13;7.25;;;21.60;87.00;;;;;;5053595;28;20111;-67
2023/06/09 00:09:44;;;;;;;7.55;5.35;;;21.60;86.80;;;;;;5053963;28;20074;-69
2023/06/09 00:12:10;;;;;;;7.32;5.43;;;21.60;87.70;;;;;;5053349;28;20063;-69
2023/06/09 00:14:36;;;;;;;7.93;4.85;;;21.50;87.70;;;;;;5053333;28;20060;-69
2023/06/09 00:17:02;;;;;;;6.55;4.97;;;21.50;88.10;;;;;;5053343;28;20064;-70
2023/06/09 00:19:29;;;;;;;5.10;4.40;;;21.50;89.10;;;;;;5053552;28;20108;-69
2023/06/09 00:21:54;;;;;;;5.93;4.95;;;21.40;88.60;;;;;;5053123;28;20032;-68
2023/06/09 00:24:23;;;;;;;6.55;5.20;;;21.40;89.30;;;;;;5053868;28;20025;-70
2023/06/09 00:26:52;;;;;;;10.10;5.60;;;21.30;89.10;;;;;;5053417;28;20029;-69
2023/06/09 00:29:21;;;;;;;7.30;4.82;;;21.30;89.40;;;;;;5053013;28;20114;-70
2023/06/09 00:31:47;;;;;;;7.35;5.07;;;21.20;89.30;;;;;;5052838;28;20056;-69
2023/06/09 00:34:13;;;;;;;9.05;5.55;;;21.20;89.50;;;;;;5053034;28;20041;-70
2023/06/09 00:36:39;;;;;;;6.97;5.05;;;21.20;89.70;;;;;;5053441;28;20150;-69
2023/06/09 00:39:05;;;;;;;9.02;5.78;;;21.20;89.50;;;;;;5053055;28;20456;-69
2023/06/09 00:41:41;;;;;;;13.18;5.50;;;21.20;89.50;;;;;;5051792;28;20029;-70
2023/06/09 00:44:07;;;;;;;9.88;5.70;;;21.20;89.50;;;;;;5052759;28;20044;-69
2023/06/09 00:46:34;;;;;;;8.38;5.25;;;21.20;90.00;;;;;;5052830;28;20029;-69
2023/06/09 00:49:00;;;;;;;9.25;4.78;;;21.20;90.20;;;;;;5053226;28;20467;-70
2023/06/09 00:51:26;;;;;;;10.23;5.88;;;21.10;90.20;;;;;;5053403;28;20021;-69
2023/06/09 00:53:52;;;;;;;8.48;5.43;;;21.10;90.30;;;;;;5053023;28;20039;-69
2023/06/09 00:56:23;;;;;;;7.28;5.65;;;21.20;90.00;;;;;;5052694;28;20025;-70
2023/06/09 00:58:49;;;;;;;7.05;5.57;;;21.20;90.10;;;;;;5052461;28;20025;-68
2023/06/09 01:01:15;;;;;;;7.00;5.55;;;21.20;90.00;;;;;;5052495;28;20044;-69
2023/06/09 01:03:40;;;;;;;7.30;5.47;;;21.20;90.20;;;;;;5052973;28;20021;-69
2023/06/09 01:06:23;;;;;;;8.57;5.68;;;21.20;90.40;;;;;;5052453;28;20032;-69
2023/06/09 01:09:19;;;;;;;8.70;5.72;;;21.20;90.40;;;;;;5052009;28;20041;-69
2023/06/09 01:11:52;;;;;;;6.72;5.70;;;21.20;90.60;;;;;;5052430;28;20122;-69
2023/06/09 01:14:27;;;;;;;9.07;5.97;;;21.10;90.60;;;;;;5051385;28;20041;-69
2023/06/09 01:17:00;;;;;;;10.38;6.40;;;21.10;90.50;;;;;;5052318;28;20044;-68
2023/06/09 01:19:40;;;;;;;7.93;5.63;;;21.10;90.80;;;;;;5052380;28;20116;-68
2023/06/09 01:22:52;;;;;;;6.93;5.68;;;21.10;90.80;;;;;;5051583;28;20130;-69
2023/06/09 01:25:34;;;;;;;9.20;6.60;;;21.00;90.80;;;;;;5051718;28;20061;-70
2023/06/09 01:28:11;;;;;;;8.93;5.55;;;21.10;90.70;;;;;;5052463;28;20025;-68
2023/06/09 01:30:40;;;;;;;10.80;6.68;;;21.20;90.70;;;;;;5052454;28;20045;-69
2023/06/09 01:33:11;;;;;;;8.88;5.85;;;21.10;90.90;;;;;;5051305;28;20033;-68
2023/06/09 01:35:39;;;;;;;9.25;5.93;;;21.10;91.00;;;;;;5045704;28;20340;-69
2023/06/09 01:38:06;;;;;;;7.75;5.70;;;21.00;91.00;;;;;;5032344;28;20087;-69
2023/06/09 01:40:32;;;;;;;8.38;5.60;;;21.00;91.20;;;;;;5032239;28;20044;-68
2023/06/09 01:43:00;;;;;;;11.10;6.45;;;21.00;91.30;;;;;;5031933;28;20021;-69
2023/06/09 01:45:26;;;;;;;9.45;6.07;;;21.00;91.40;;;;;;5032603;28;20475;-68
2023/06/09 01:47:53;;;;;;;10.00;5.70;;;21.00;91.60;;;;;;5032077;28;20344;-70
2023/06/09 01:50:49;;;;;;;11.60;6.78;;;21.00;91.40;;;;;;5031874;28;20063;-69
2023/06/09 01:53:18;;;;;;;7.47;5.82;;;20.90;91.80;;;;;;5032006;28;20033;-69
2023/06/09 01:55:54;;;;;;;7.70;6.03;;;20.90;91.90;;;;;;5031942;28;20040;-69
2023/06/09 01:58:29;;;;;;;9.02;6.57;;;20.80;92.00;;;;;;5032125;28;20095;-69
2023/06/09 02:00:57;;;;;;;10.52;6.55;;;20.90;92.00;;;;;;5031752;28;20021;-70
2023/06/09 02:03:25;;;;;;;13.05;6.10;;;20.90;92.00;;;;;;5031213;28;20452;-68
2023/06/09 02:05:55;;;;;;;9.60;6.68;;;20.90;91.90;;;;;;5031874;28;20475;-69
2023/06/09 02:08:22;;;;;;;8.48;6.28;;;20.80;92.20;;;;;;5031636;28;20084;-68
2023/06/09 02:10:48;;;;;;;8.82;6.10;;;20.80;92.40;;;;;;5031762;28;20088;-70
2023/06/09 02:13:16;;;;;;;8.55;6.38;;;20.80;92.40;;;;;;5031408;28;20357;-69
2023/06/09 02:15:45;;;;;;;7.90;6.05;;;20.80;92.40;;;;;;5032044;28;20026;-69
2023/06/09 02:18:12;;;;;;;9.00;6.50;;;20.80;92.20;;;;;;5031311;28;20022;-69
2023/06/09 02:20:44;;;;;;;10.25;6.90;;;20.80;92.50;;;;;;5031563;28;20212;-69
2023/06/09 02:23:11;;;;;;;10.65;6.85;;;20.80;92.40;;;;;;5031301;28;20037;-69
2023/06/09 02:25:36;;;;;;;11.50;6.90;;;20.80;92.30;;;;;;5031604;28;20026;-70
2023/06/09 02:28:06;;;;;;;15.70;7.00;;;20.80;92.50;;;;;;5031482;28;20033;-68
2023/06/09 02:30:33;;;;;;;8.75;7.05;;;20.80;92.60;;;;;;5031599;28;20403;-68
2023/06/09 02:33:00;;;;;;;12.23;7.20;;;20.80;92.70;;;;;;5031607;28;20025;-69
2023/06/09 02:35:26;;;;;;;10.60;7.03;;;20.80;92.30;;;;;;5031302;28;20033;-69
2023/06/09 02:37:52;;;;;;;13.20;7.45;;;20.80;92.50;;;;;;5031223;28;20052;-70
2023/06/09 02:40:19;;;;;;;12.30;7.93;;;20.90;92.20;;;;;;5031102;28;20114;-70
2023/06/09 02:42:45;;;;;;;9.48;7.40;;;20.90;92.10;;;;;;5031419;28;20029;-71
2023/06/09 02:45:12;;;;;;;11.80;8.15;;;20.90;92.20;;;;;;5030197;28;20030;-71
2023/06/09 02:47:38;;;;;;;12.25;8.20;;;20.90;92.20;;;;;;5029989;28;20052;-70
2023/06/09 02:50:04;;;;;;;10.48;7.40;;;20.90;92.10;;;;;;5030081;28;20026;-70
2023/06/09 02:52:31;;;;;;;11.60;8.15;;;20.90;92.20;;;;;;5031657;28;20043;-68
2023/06/09 02:54:57;;;;;;;16.75;8.77;;;20.90;92.30;;;;;;5029791;28;20037;-70
2023/06/09 02:57:25;;;;;;;10.90;7.78;;;20.90;92.20;;;;;;5031353;28;20049;-70
2023/06/09 02:59:51;;;;;;;10.18;7.95;;;20.90;92.30;;;;;;5031001;28;20399;-70
2023/06/09 03:02:18;;;;;;;12.48;7.78;;;20.90;92.50;;;;;;5030733;28;20042;-70
2023/06/09 03:04:43;;;;;;;12.55;8.27;;;20.80;92.50;;;;;;5030897;28;20029;-70
2023/06/09 03:07:13;;;;;;;18.05;7.95;;;20.80;92.70;;;;;;5030988;28;20025;-69
2023/06/09 03:09:48;;;;;;;12.98;7.47;;;20.90;92.60;;;;;;5031445;28;20568;-70
2023/06/09 03:12:14;;;;;;;12.77;8.30;;;20.80;92.60;;;;;;5030911;28;20037;-70
2023/06/09 03:14:40;;;;;;;10.73;7.63;;;20.80;93.00;;;;;;5030754;28;20092;-68
2023/06/09 03:17:06;;;;;;;12.57;8.70;;;20.80;92.70;;;;;;5030775;28;20045;-70
2023/06/09 03:19:32;;;;;;;13.43;9.27;;;20.70;92.70;;;;;;5030722;28;20029;-70
2023/06/09 03:21:57;;;;;;;11.77;8.75;;;20.70;92.70;;;;;;5030569;28;20045;-69
2023/06/09 03:24:26;;;;;;;15.15;10.02;;;20.70;92.40;;;;;;5031060;28;20152;-70
2023/06/09 03:26:52;;;;;;;18.17;9.75;;;20.80;92.60;;;;;;5029801;28;20045;-70
2023/06/09 03:29:21;;;;;;;13.60;9.65;;;20.80;92.50;;;;;;5030622;28;20021;-69
2023/06/09 03:31:47;;;;;;;15.25;9.77;;;20.80;92.40;;;;;;5033730;28;20561;-70
2023/06/09 03:34:13;;;;;;;16.35;10.02;;;20.80;92.40;;;;;;5034485;28;20379;-70
2023/06/09 03:36:39;;;;;;;14.73;10.07;;;20.80;92.60;;;;;;5034023;28;20079;-71
2023/06/09 03:39:07;;;;;;;15.20;9.75;;;20.70;92.70;;;;;;5034516;28;20357;-70
2023/06/09 03:41:33;;;;;;;15.85;9.80;;;20.70;92.70;;;;;;5033452;28;20036;-69
2023/06/09 03:43:59;;;;;;;17.05;10.23;;;20.70;92.80;;;;;;5033238;28;20151;-69
2023/06/09 03:46:25;;;;;;;15.60;10.38;;;20.70;92.90;;;;;;5033256;28;20407;-69
2023/06/09 03:48:52;;;;;;;20.10;11.65;;;20.60;92.80;;;;;;5035223;28;20033;-70
2023/06/09 03:51:19;;;;;;;16.60;10.95;;;20.60;92.90;;;;;;5032743;28;20132;-69
2023/06/09 03:53:45;;;;;;;16.92;11.32;;;20.60;92.90;;;;;;5034467;28;20561;-70
2023/06/09 03:56:11;;;;;;;12.30;9.80;;;20.60;92.90;;;;;;5034348;28;20076;-71
2023/06/09 03:58:40;;;;;;;14.38;9.38;;;20.60;92.80;;;;;;5034264;28;20094;-70
2023/06/09 04:01:10;;;;;;;13.63;10.02;;;20.60;92.80;;;;;;5034070;28;20469;-70
2023/06/09 04:03:37;;;;;;;15.38;9.88;;;20.60;92.70;;;;;;5033431;28;20092;-70
2023/06/09 04:06:03;;;;;;;15.13;9.45;;;20.60;92.90;;;;;;5034026;28;20028;-69
2023/06/09 04:08:29;;;;;;;13.57;8.77;;;20.60;93.20;;;;;;5034110;28;20033;-69
2023/06/09 04:10:55;;;;;;;12.55;8.88;;;20.60;93.30;;;;;;5033937;28;20092;-69
2023/06/09 04:13:21;;;;;;;11.15;8.48;;;20.50;93.80;;;;;;5033851;28;20033;-69
2023/06/09 04:15:46;;;;;;;15.38;9.63;;;20.40;93.90;;;;;;5034669;28;20035;-69
2023/06/09 04:18:12;;;;;;;12.32;9.65;;;20.50;93.70;;;;;;5032730;28;20030;-70
2023/06/09 04:20:38;;;;;;;12.27;8.60;;;20.50;93.50;;;;;;5032533;28;20064;-70
2023/06/09 04:23:05;;;;;;;12.10;10.07;;;20.50;93.40;;;;;;5033579;28;20080;-70
2023/06/09 04:25:34;;;;;;;14.02;9.52;;;20.50;93.10;;;;;;5033578;28;20312;-69
2023/06/09 04:28:02;;;;;;;13.07;8.77;;;20.60;93.30;;;;;;5033510;28;20375;-69
2023/06/09 04:30:29;;;;;;;15.52;8.95;;;20.60;93.40;;;;;;5032927;28;20111;-68
2023/06/09 04:32:58;;;;;;;13.65;8.32;;;20.50;93.30;;;;;;5033472;28;20036;-69
2023/06/09 04:35:24;;;;;;;11.65;8.18;;;20.50;93.00;;;;;;5033437;28;20099;-69
2023/06/09 04:37:50;;;;;;;20.42;9.70;;;20.60;92.80;;;;;;5033560;28;20029;-70
2023/06/09 04:40:22;;;;;;;12.27;8.50;;;20.60;92.90;;;;;;5033388;28;20033;-70
2023/06/09 04:42:59;;;;;;;11.77;8.73;;;20.50;92.70;;;;;;5033372;28;20026;-70
2023/06/09 04:45:27;;;;;;;14.90;9.18;;;20.50;92.70;;;;;;5032441;28;20041;-70
2023/06/09 04:47:59;;;;;;;13.45;9.98;;;20.50;92.50;;;;;;5033231;28;20022;-69
2023/06/09 04:50:25;;;;;;;19.85;9.55;;;20.60;92.60;;;;;;5033223;28;20077;-68
2023/06/09 04:52:51;;;;;;;16.48;8.65;;;20.50;92.70;;;;;;5033049;28;20060;-69
2023/06/09 04:55:17;;;;;;;14.82;9.48;;;20.50;92.40;;;;;;5033042;28;20404;-70
2023/06/09 04:57:43;;;;;;;11.20;8.32;;;20.50;92.20;;;;;;5033469;28;20359;-70
2023/06/09 05:00:16;;;;;;;10.50;8.45;;;20.60;92.30;;;;;;5032920;28;20082;-70
2023/06/09 05:02:44;;;;;;;20.95;8.70;;;20.60;92.20;;;;;;5031791;28;20111;-69
2023/06/09 05:05:10;;;;;;;17.70;8.10;;;20.60;92.20;;;;;;5033106;28;20049;-69
2023/06/09 05:07:39;;;;;;;14.23;8.35;;;20.60;92.40;;;;;;5032791;28;20026;-69
2023/06/09 05:10:06;;;;;;;14.00;8.30;;;20.60;92.30;;;;;;5031697;28;20447;-70
2023/06/09 05:12:32;;;;;;;47.97;10.30;;;20.60;92.30;;;;;;5033087;28;20026;-70
2023/06/09 05:14:58;;;;;;;24.15;10.35;;;20.60;92.00;;;;;;5032646;28;20468;-70
2023/06/09 05:17:24;;;;;;;16.88;7.88;;;20.60;91.80;;;;;;5031440;28;20033;-69
2023/06/09 05:19:50;;;;;;;16.15;8.00;;;20.60;91.60;;;;;;5031296;28;20126;-70
2023/06/09 05:22:16;;;;;;;15.93;7.75;;;20.60;91.30;;;;;;5032366;28;20071;-70
2023/06/09 05:24:41;;;;;;;17.20;9.32;;;20.60;91.40;;;;;;5031625;28;20033;-70
2023/06/09 05:27:08;;;;;;;11.98;8.10;;;20.60;91.50;;;;;;5031120;28;20033;-71
2023/06/09 05:29:33;;;;;;;14.10;7.80;;;20.60;91.30;;;;;;5032044;28;20034;-69
2023/06/09 05:31:59;;;;;;;10.77;7.68;;;20.70;91.30;;;;;;5032433;28;20079;-73
2023/06/09 05:34:25;;;;;;;12.52;7.35;;;20.70;91.10;;;;;;5032440;28;20037;-70
2023/06/09 05:36:50;;;;;;;22.20;8.90;;;20.70;91.20;;;;;;5032539;28;20033;-70
2023/06/09 05:39:16;;;;;;;21.25;8.60;;;20.70;91.20;;;;;;5031924;28;20087;-69
2023/06/09 05:41:42;;;;;;;13.00;8.20;;;20.70;91.00;;;;;;5030780;28;20190;-69
2023/06/09 05:44:07;;;;;;;15.35;7.80;;;20.70;90.80;;;;;;5031733;28;20052;-70
2023/06/09 05:46:37;;;;;;;9.15;7.25;;;20.80;90.70;;;;;;5031857;28;20034;-71
2023/06/09 05:49:03;;;;;;;16.23;7.82;;;20.80;90.70;;;;;;5032084;28;20033;-69
2023/06/09 05:51:29;;;;;;;15.05;8.00;;;20.80;90.50;;;;;;5031613;28;20347;-70
2023/06/09 05:53:55;;;;;;;16.95;7.88;;;20.80;90.50;;;;;;5031353;28;20099;-68
2023/06/09 05:59:43;;;;;;;11.82;6.80;;;20.80;90.80;;;;;;5031154;28;20103;-69
2023/06/09 06:02:09;;;;;;;9.20;6.60;;;20.80;90.40;;;;;;5031448;28;20504;-69
2023/06/09 06:04:55;;;;;;;10.60;7.13;;;20.70;90.10;;;;;;5031592;28;20287;-69
2023/06/09 06:07:20;;;;;;;12.88;7.10;;;20.70;90.10;;;;;;5031103;28;20507;-69
2023/06/09 06:09:46;;;;;;;14.63;7.30;;;20.70;90.00;;;;;;5030891;28;20336;-71
2023/06/09 06:12:12;;;;;;;16.42;6.45;;;20.70;89.70;;;;;;5030383;28;20034;-71
2023/06/09 06:14:37;;;;;;;11.23;7.10;;;20.80;89.70;;;;;;5031543;28;20124;-71
2023/06/09 06:17:03;;;;;;;16.73;7.75;;;20.70;89.20;;;;;;5031286;28;20368;-72
2023/06/09 06:19:29;;;;;;;14.95;6.60;;;20.70;89.10;;;;;;5031473;28;20251;-72
2023/06/09 06:21:54;;;;;;;12.20;6.63;;;20.70;89.00;;;;;;5031418;28;20424;-71
2023/06/09 06:24:20;;;;;;;16.30;6.97;;;20.70;89.00;;;;;;5031415;28;20049;-71
2023/06/09 06:26:46;;;;;;;12.18;6.47;;;20.70;88.90;;;;;;5030995;28;20384;-74
2023/06/09 06:29:11;;;;;;;15.25;7.53;;;20.80;88.90;;;;;;5029862;28;20419;-75
2023/06/09 06:31:38;;;;;;;10.57;6.50;;;20.70;88.60;;;;;;5030420;28;20073;-74
2023/06/09 06:34:04;;;;;;;11.82;6.70;;;20.80;88.60;;;;;;5029760;28;20108;-73
2023/06/09 06:36:30;;;;;;;17.00;6.50;;;20.80;88.30;;;;;;5030213;28;20183;-73
2023/06/09 06:38:56;;;;;;;13.93;7.10;;;20.90;88.20;;;;;;5029720;28;20033;-71
2023/06/09 06:41:21;;;;;;;14.95;6.50;;;20.90;88.00;;;;;;5031030;28;20040;-72
2023/06/09 06:43:49;;;;;;;21.13;6.90;;;20.90;87.70;;;;;;5031149;28;20029;-74
2023/06/09 06:46:17;;;;;;;;;;;21.00;87.60;;;;;;5031749;28;20124;-75
2023/06/09 06:48:43;;;;;;;12.45;6.50;;;21.00;87.40;;;;;;5031577;28;19956;-71
2023/06/09 06:51:08;;;;;;;14.93;6.38;;;21.00;87.30;;;;;;5030558;28;20103;-71
2023/06/09 06:53:36;;;;;;;11.18;5.72;;;21.00;87.30;;;;;;5030492;28;20415;-71
2023/06/09 06:56:02;;;;;;;;;;;21.00;87.90;;;;;;5029742;28;20068;-73
2023/06/09 06:58:28;;;;;;;12.23;5.68;;;21.00;87.00;;;;;;5030382;28;20351;-70
2023/06/09 07:00:56;;;;;;;9.95;5.75;;;21.00;86.70;;;;;;5030501;28;20025;-71
2023/06/09 07:03:26;;;;;;;13.73;5.97;;;21.00;86.40;;;;;;5031059;28;20028;-71
2023/06/09 07:05:53;;;;;;;11.98;6.60;;;21.10;86.40;;;;;;5030465;28;20058;-70
2023/06/09 07:08:19;;;;;;;10.27;6.00;;;21.10;86.10;;;;;;5029494;28;20022;-73
2023/06/09 07:10:45;;;;;;;10.50;6.32;;;21.10;85.90;;;;;;5030509;28;20029;-72
2023/06/09 07:13:10;;;;;;;15.52;6.10;;;21.10;86.20;;;;;;5029411;28;20354;-70
2023/06/09 07:15:37;;;;;;;12.38;7.03;;;21.10;86.40;;;;;;5030717;28;20116;-70
2023/06/09 07:18:03;;;;;;;11.20;6.18;;;21.20;86.20;;;;;;5030417;28;20460;-72
2023/06/09 07:20:29;;;;;;;15.27;5.80;;;21.20;86.30;;;;;;5030343;28;20060;-70
2023/06/09 07:22:55;;;;;;;18.10;6.55;;;21.30;86.30;;;;;;5030195;28;20065;-69
2023/06/09 07:25:20;;;;;;;15.15;6.57;;;21.30;85.60;;;;;;5030342;28;20025;-68
2023/06/09 07:27:46;;;;;;;9.88;6.03;;;21.40;86.00;;;;;;5029642;28;20033;-69
2023/06/09 07:30:12;;;;;;;12.95;5.90;;;21.50;85.60;;;;;;5029891;28;20046;-71
2023/06/09 07:32:39;;;;;;;9.20;5.40;;;21.50;85.20;;;;;;5030098;28;20032;-73
2023/06/09 07:35:05;;;;;;;12.20;5.28;;;21.70;85.40;;;;;;5029125;28;20091;-73
2023/06/09 07:37:31;;;;;;;9.70;5.82;;;21.70;85.00;;;;;;5030132;28;20460;-71
2023/06/09 07:39:57;;;;;;;10.32;5.63;;;21.80;86.20;;;;;;5030194;28;20040;-72
2023/06/09 07:42:23;;;;;;;12.65;6.10;;;22.00;85.60;;;;;;5030080;28;20025;-72
2023/06/09 07:44:48;;;;;;;15.10;5.93;;;22.10;85.30;;;;;;5030278;28;20071;-72
2023/06/09 07:47:14;;;;;;;17.05;6.00;;;22.20;84.80;;;;;;5030017;28;20124;-70
2023/06/09 07:49:40;;;;;;;9.52;5.55;;;22.20;85.00;;;;;;5029087;28;20037;-71
2023/06/09 07:52:06;;;;;;;13.95;6.65;;;22.40;85.10;;;;;;5028748;28;20078;-71
2023/06/09 07:54:32;;;;;;;16.05;6.10;;;22.50;84.90;;;;;;5030436;28;20105;-73
2023/06/09 07:56:57;;;;;;;11.57;6.45;;;22.50;84.50;;;;;;5030093;28;20490;-70
2023/06/09 07:59:23;;;;;;;15.07;6.72;;;22.60;84.90;;;;;;5029816;28;20029;-71
2023/06/09 08:01:48;;;;;;;13.93;5.90;;;22.80;84.30;;;;;;5030244;28;20030;-69
2023/06/09 08:04:14;;;;;;;10.32;5.32;;;22.80;84.10;;;;;;5030383;28;20038;-72
2023/06/09 08:06:40;;;;;;;12.68;6.78;;;22.90;84.60;;;;;;5030374;28;20456;-72
2023/06/09 08:09:06;;;;;;;12.10;5.60;;;22.90;83.90;;;;;;5029929;28;20037;-71
2023/06/09 08:11:32;;;;;;;13.48;6.22;;;23.00;84.50;;;;;;5030013;28;20038;-70
2023/06/09 08:13:58;;;;;;;12.15;5.93;;;23.10;83.90;;;;;;5029890;28;20036;-72
2023/06/09 08:16:24;;;;;;;9.27;5.60;;;23.20;84.10;;;;;;5030718;28;20363;-70
2023/06/09 08:18:50;;;;;;;10.65;6.15;;;23.10;84.50;;;;;;5032850;28;20037;-71
2023/06/09 08:21:17;;;;;;;11.93;5.97;;;23.30;83.80;;;;;;5033519;28;20355;-71
2023/06/09 08:23:44;;;;;;;9.82;5.90;;;23.30;83.40;;;;;;5033508;28;20029;-69
2023/06/09 08:26:10;;;;;;;10.30;6.22;;;23.50;83.60;;;;;;5033592;28;20249;-70
2023/06/09 08:28:36;;;;;;;12.15;6.70;;;23.50;83.50;;;;;;5033644;28;20091;-71
2023/06/09 08:31:03;;;;;;;9.63;5.32;;;23.60;83.80;;;;;;5032067;28;20045;-72
2023/06/09 08:33:33;;;;;;;13.00;6.22;;;23.70;82.90;;;;;;5033556;28;20022;-71
2023/06/09 08:36:02;;;;;;;12.35;6.47;;;23.80;83.60;;;;;;5033129;28;20029;-72
2023/06/09 08:38:28;;;;;;;12.20;5.63;;;23.90;83.30;;;;;;5033258;28;20365;-75
2023/06/09 08:40:59;;;;;;;30.48;6.20;;;24.30;83.10;;;;;;5033187;28;20526;-72
2023/06/09 08:43:26;;;;;;;9.50;6.22;;;24.90;81.80;;;;;;5032939;28;20060;-72
2023/06/09 08:45:53;;;;;;;13.05;6.68;;;25.70;81.20;;;;;;5033376;28;20017;-71
2023/06/09 08:48:20;;;;;;;10.40;5.90;;;26.10;79.10;;;;;;5032997;28;20467;-72
2023/06/09 08:50:46;;;;;;;14.20;5.95;;;26.30;78.40;;;;;;5032913;28;20104;-71
2023/06/09 08:53:13;;;;;;;7.28;5.18;;;26.60;78.60;;;;;;5032813;28;20034;-71
2023/06/09 08:55:39;;;;;;;10.55;6.15;;;26.70;76.60;;;;;;5032743;28;20022;-71
2023/06/09 08:58:05;;;;;;;16.30;5.65;;;26.50;76.40;;;;;;5031505;28;20091;-73
2023/06/09 09:00:31;;;;;;;10.48;4.90;;;26.60;76.20;;;;;;5033005;28;20022;-72
2023/06/09 09:02:57;;;;;;;8.98;5.05;;;26.90;76.20;;;;;;5032580;28;20033;-71
2023/06/09 09:05:22;;;;;;;13.32;5.70;;;27.20;75.40;;;;;;5032511;28;20036;-71
2023/06/09 09:07:49;;;;;;;15.65;6.25;;;27.00;73.90;;;;;;5032517;28;20053;-71
2023/06/09 09:10:15;;;;;;;15.50;5.82;;;26.90;74.30;;;;;;5032673;28;20474;-72
2023/06/09 09:12:59;;;;;;;9.80;5.80;;;26.80;74.00;;;;;;5032785;28;20110;-70
2023/06/09 09:15:25;;;;;;;13.00;5.68;;;27.20;74.70;;;;;;5032144;28;20128;-71
2023/06/09 09:17:51;;;;;;;12.95;5.45;;;27.20;74.70;;;;;;5031778;28;20030;-72
2023/06/09 09:20:17;;;;;;;10.07;5.25;;;27.40;75.40;;;;;;5031023;28;20033;-72
2023/06/09 09:22:48;;;;;;;8.77;5.07;;;27.70;74.80;;;;;;5032225;28;20124;-71
2023/06/09 09:25:25;;;;;;;7.55;4.93;;;28.10;73.00;;;;;;5032160;28;20121;-71
2023/06/09 09:28:02;;;;;;;15.55;6.10;;;28.20;71.60;;;;;;5031449;28;20037;-72
2023/06/09 09:30:48;;;;;;;11.93;5.53;;;28.20;72.20;;;;;;5032172;28;20049;-72
2023/06/09 09:33:22;;;;;;;15.60;7.53;;;28.10;71.40;;;;;;5031233;28;20383;-71
2023/06/09 09:35:53;;;;;;;10.00;5.80;;;28.00;71.00;;;;;;5031041;28;20029;-71
2023/06/09 09:38:22;;;;;;;12.65;6.00;;;28.00;71.80;;;;;;5030920;28;20119;-71
2023/06/09 09:40:50;;;;;;;16.75;5.25;;;27.70;72.00;;;;;;5031818;28;20040;-70
2023/06/09 09:43:17;;;;;;;9.52;5.00;;;27.80;71.70;;;;;;5031768;28;20041;-71
2023/06/09 09:45:45;;;;;;;12.02;5.57;;;28.00;71.90;;;;;;5031042;28;20029;-71
2023/06/09 09:48:14;;;;;;;12.27;6.03;;;28.10;71.40;;;;;;5032105;28;20049;-71
2023/06/09 09:50:43;;;;;;;13.13;6.15;;;28.10;71.80;;;;;;5031841;28;20037;-70
2023/06/09 09:53:10;;;;;;;19.35;6.40;;;28.20;71.50;;;;;;5031712;28;20033;-70
2023/06/09 09:55:37;;;;;;;11.73;6.03;;;27.90;71.40;;;;;;5031791;28;20030;-72
2023/06/09 09:58:04;;;;;;;;;;;27.90;71.70;;;;;;5032095;28;20025;-71
2023/06/09 10:00:35;;;;;;;9.77;5.03;;;27.90;71.70;;;;;;5032232;28;19909;-73
2023/06/09 10:03:09;;;;;;;13.43;6.80;;;27.90;71.30;;;;;;5031520;28;20041;-72
2023/06/09 10:05:41;;;;;;;15.18;7.32;;;28.00;70.90;;;;;;5031503;28;20045;-70
2023/06/09 10:08:09;;;;;;;11.73;6.53;;;28.00;70.80;;;;;;5031784;28;20452;-71
2023/06/09 10:10:36;;;;;;;13.35;5.97;;;27.90;70.60;;;;;;5031095;28;20478;-71
2023/06/09 10:13:03;;;;;;;15.70;5.53;;;27.90;71.60;;;;;;5031338;28;20104;-72
2023/06/09 10:15:31;;;;;;;13.90;5.47;;;28.10;71.20;;;;;;5031720;28;20089;-71
2023/06/09 10:17:58;;;;;;;15.38;8.02;;;27.90;70.80;;;;;;5031034;28;20255;-72
2023/06/09 10:20:24;;;;;;;16.02;5.85;;;27.90;70.70;;;;;;5031038;28;20396;-72
2023/06/09 10:22:52;;;;;;;12.32;6.20;;;27.90;70.90;;;;;;5030924;28;20471;-71
2023/06/09 10:25:18;;;;;;;14.32;5.95;;;27.90;70.40;;;;;;5029984;28;20026;-69
2023/06/09 10:27:45;;;;;;;9.10;4.82;;;27.60;70.30;;;;;;5031277;28;20026;-69
2023/06/09 10:30:17;;;;;;;8.32;4.13;;;27.40;70.80;;;;;;5030597;28;20129;-70
2023/06/09 10:33:09;;;;;;;11.48;5.80;;;27.40;71.30;;;;;;5030852;28;20477;-71
2023/06/09 10:35:38;;;;;;;15.63;5.15;;;27.40;71.30;;;;;;5030758;28;20407;-70
2023/06/09 10:38:24;;;;;;;15.05;5.18;;;27.50;71.60;;;;;;5031000;28;20022;-73
2023/06/09 10:41:09;;;;;;;9.07;5.30;;;27.50;71.20;;;;;;5030503;28;20348;-74
2023/06/09 10:44:11;;;;;;;12.20;5.40;;;27.50;70.90;;;;;;5031107;28;20379;-73
2023/06/09 10:46:55;;;;;;;11.02;5.30;;;27.50;71.80;;;;;;5030889;28;20052;-73
2023/06/09 10:49:36;;;;;;;8.55;4.57;;;27.50;71.40;;;;;;5030711;28;20025;-73
2023/06/09 10:52:02;;;;;;;10.10;5.28;;;27.50;71.80;;;;;;5030839;28;20028;-73
2023/06/09 10:54:30;;;;;;;9.63;5.97;;;27.50;71.50;;;;;;5031027;28;20029;-71
2023/06/09 10:57:00;;;;;;;12.25;5.20;;;27.40;70.60;;;;;;5030748;28;20395;-73
2023/06/09 10:59:26;;;;;;;9.93;4.70;;;27.30;72.40;;;;;;5030637;28;20060;-74
2023/06/09 11:02:01;;;;;;;10.05;5.50;;;27.30;71.90;;;;;;5029213;28;20061;-72
2023/06/09 11:04:45;;;;;;;11.32;6.00;;;27.20;71.10;;;;;;5030155;28;20503;-72
2023/06/09 11:07:13;;;;;;;9.73;5.43;;;27.10;71.30;;;;;;5030371;28;20033;-72
2023/06/09 11:09:39;;;;;;;7.10;4.65;;;27.10;71.20;;;;;;5030341;28;20060;-70
2023/06/09 11:12:06;;;;;;;14.77;5.88;;;27.00;71.70;;;;;;5031281;28;20541;-73
2023/06/09 11:14:47;;;;;;;9.55;5.60;;;27.00;71.90;;;;;;5031074;28;20041;-73
2023/06/09 11:17:29;;;;;;;8.88;4.95;;;26.90;71.80;;;;;;5030584;28;20026;-72
2023/06/09 11:20:14;;;;;;;8.43;4.90;;;26.90;71.80;;;;;;5029437;28;20120;-70
2023/06/09 11:22:49;;;;;;;15.00;5.15;;;27.00;71.50;;;;;;5031054;28;20474;-71
2023/06/09 11:25:15;;;;;;;13.73;5.28;;;26.90;71.10;;;;;;5030696;28;20044;-72
2023/06/09 11:27:42;;;;;;;13.63;5.40;;;26.90;71.50;;;;;;5030797;28;20026;-72
2023/06/09 11:30:11;;;;;;;8.55;4.55;;;26.80;71.70;;;;;;5030898;28;20053;-73
2023/06/09 11:32:47;;;;;;;11.10;5.28;;;26.80;71.90;;;;;;5030327;28;20372;-72
2023/06/09 11:35:31;;;;;;;8.02;4.75;;;26.80;71.70;;;;;;5030036;28;20260;-73
2023/06/09 11:38:08;;;;;;;12.43;5.65;;;26.90;73.10;;;;;;5030334;28;20033;-72
2023/06/09 11:40:34;;;;;;;12.73;5.37;;;27.00;71.50;;;;;;5029211;28;20144;-74
2023/06/09 11:43:02;;;;;;;9.55;5.28;;;27.00;72.00;;;;;;5030977;28;20293;-75
2023/06/09 11:45:30;;;;;;;10.50;5.63;;;27.00;71.60;;;;;;5031518;28;20037;-72
2023/06/09 11:47:59;;;;;;;10.88;5.30;;;27.00;71.60;;;;;;5031202;28;20064;-73
2023/06/09 11:50:35;;;;;;;10.18;5.15;;;27.10;72.30;;;;;;5032479;28;20108;-74
2023/06/09 11:53:09;;;;;;;14.75;4.97;;;27.00;71.80;;;;;;5035833;28;20030;-73
2023/06/09 11:55:34;;;;;;;18.52;12.02;;;27.20;71.50;;;;;;5036091;28;20034;-75
2023/06/09 11:58:01;;;;;;;12.52;6.75;;;27.10;71.40;;;;;;5036161;28;20098;-74
2023/06/09 12:00:28;;;;;;;9.43;5.25;;;27.20;71.90;;;;;;5036559;28;20022;-71
2023/06/09 12:02:57;;;;;;;12.23;5.25;;;27.00;70.60;;;;;;5018830;28;20030;-73
2023/06/09 12:05:26;;;;;;;9.52;5.13;;;27.10;71.50;;;;;;5036119;28;20029;-72
2023/06/09 12:07:53;;;;;;;10.63;5.30;;;27.20;71.20;;;;;;5034541;28;20032;-74
2023/06/09 12:10:22;;;;;;;9.25;4.85;;;27.10;70.90;;;;;;5034425;28;20124;-74
2023/06/09 12:12:52;;;;;;;9.30;4.88;;;27.20;70.90;;;;;;5035898;28;20104;-74
2023/06/09 12:15:21;;;;;;;9.00;5.10;;;27.10;70.50;;;;;;5035798;28;20115;-74
2023/06/09 12:17:53;;;;;;;9.13;4.90;;;27.20;70.80;;;;;;5035036;28;20033;-74
2023/06/09 12:20:18;;;;;;;8.38;4.82;;;27.20;70.40;;;;;;5034879;28;20029;-75
2023/06/09 12:22:44;;;;;;;9.13;4.75;;;27.20;69.70;;;;;;5034282;28;20601;-76
2023/06/09 12:25:27;;;;;;;8.18;4.28;;;27.10;69.40;;;;;;5034279;28;20104;-74
2023/06/09 12:27:55;;;;;;;10.43;4.55;;;27.20;70.00;;;;;;5034671;28;20101;-73
2023/06/09 12:30:33;;;;;;;11.40;4.63;;;27.30;70.00;;;;;;5034381;28;20073;-74
2023/06/09 12:33:04;;;;;;;8.98;4.55;;;27.50;68.80;;;;;;5033256;28;20415;-74
2023/06/09 12:35:40;;;;;;;9.40;4.85;;;27.40;69.20;;;;;;5034466;28;20037;-75
2023/06/09 12:38:14;;;;;;;13.50;4.57;;;27.50;69.20;;;;;;5034083;28;20042;-72
2023/06/09 12:41:03;;;;;;;9.10;4.75;;;27.50;69.50;;;;;;5033769;28;20255;-71
2023/06/09 12:43:43;;;;;;;9.30;4.13;;;27.60;68.90;;;;;;5033787;28;20045;-71
2023/06/09 12:46:09;;;;;;;9.20;5.18;;;27.60;69.80;;;;;;5034371;28;20045;-72
2023/06/09 12:48:54;;;;;;;9.68;4.88;;;27.70;69.70;;;;;;5034670;28;20111;-71
2023/06/09 12:51:20;;;;;;;6.72;4.68;;;27.80;68.80;;;;;;5034235;28;20560;-73
2023/06/09 12:53:46;;;;;;;10.30;5.07;;;27.80;69.30;;;;;;5034278;28;20120;-73